createdAt,value
2019-02-22T00:01:58.785Z,60.27
2019-02-22T00:04:25.263Z,59.40
2019-02-22T00:06:51.431Z,60.37
2019-02-22T00:09:17.592Z,60.23
2019-02-22T00:11:43.737Z,59.77
2019-02-22T00:14:10.173Z,60.23
2019-02-22T00:16:36.624Z,58.97
2019-02-22T00:19:02.780Z,62.10
2019-02-22T00:21:28.928Z,65.00
2019-02-22T00:23:55.084Z,60.70
2019-02-22T00:26:21.219Z,63.47
2019-02-22T00:28:47.648Z,61.33
2019-02-22T00:31:13.801Z,64.03
2019-02-22T00:33:39.963Z,63.83
2019-02-22T00:36:06.115Z,60.10
2019-02-22T00:38:32.498Z,63.93
2019-02-22T00:40:58.660Z,61.97
2019-02-22T00:43:24.957Z,59.93
2019-02-22T00:45:51.216Z,58.20
2019-02-22T00:48:17.356Z,60.70
2019-02-22T00:50:43.519Z,60.33
2019-02-22T00:53:09.659Z,59.27
2019-02-22T00:55:35.856Z,58.10
2019-02-22T00:58:02.070Z,56.67
2019-02-22T01:00:28.227Z,58.07
2019-02-22T01:02:54.644Z,59.13
2019-02-22T01:05:20.807Z,59.93
2019-02-22T01:07:46.979Z,54.63
2019-02-22T01:10:13.127Z,60.20
2019-02-22T01:12:39.474Z,61.70
2019-02-22T01:15:05.887Z,58.20
2019-02-22T01:17:32.155Z,56.97
2019-02-22T01:19:58.302Z,59.93
2019-02-22T01:22:24.456Z,60.90
2019-02-22T01:24:50.600Z,59.73
2019-02-22T01:27:16.762Z,62.40
2019-02-22T01:29:42.900Z,64.90
2019-02-22T01:32:09.079Z,65.03
2019-02-22T01:34:35.234Z,63.33
2019-02-22T01:37:01.407Z,66.90
2019-02-22T01:39:27.881Z,65.33
2019-02-22T01:41:54.033Z,69.63
2019-02-22T01:44:21.284Z,65.77
2019-02-22T01:46:47.783Z,64.87
2019-02-22T01:49:14.027Z,69.40
2019-02-22T01:51:40.183Z,64.47
2019-02-22T01:54:06.336Z,65.80
2019-02-22T01:56:32.493Z,64.13
2019-02-22T01:58:58.647Z,69.47
2019-02-22T02:01:25.055Z,66.23
2019-02-22T02:03:51.215Z,64.90
2019-02-22T02:06:17.407Z,68.30
2019-02-22T02:08:43.567Z,65.30
2019-02-22T02:11:09.767Z,68.40
2019-02-22T02:13:36.200Z,66.10
2019-02-22T02:16:02.345Z,70.37
2019-02-22T02:18:29.519Z,72.47
2019-02-22T02:20:55.720Z,72.73
2019-02-22T02:23:21.937Z,67.17
2019-02-22T02:25:48.076Z,66.37
2019-02-22T02:28:14.223Z,68.73
2019-02-22T02:30:40.368Z,71.67
2019-02-22T02:33:06.528Z,66.10
2019-02-22T02:35:32.674Z,72.80
2019-02-22T02:37:58.847Z,68.93
2019-02-22T02:40:24.992Z,74.47
2019-02-22T02:42:51.150Z,72.60
2019-02-22T02:45:17.288Z,75.67
2019-02-22T02:47:43.462Z,74.00
2019-02-22T02:50:15.029Z,66.47
2019-02-22T02:52:41.190Z,73.50
2019-02-22T02:55:30.057Z,73.03
2019-02-22T02:57:56.212Z,75.93
2019-02-22T03:00:22.343Z,70.40
2019-02-22T03:02:48.744Z,71.67
2019-02-22T03:05:14.905Z,71.30
2019-02-22T03:07:42.263Z,69.30
2019-02-22T03:10:08.423Z,73.00
2019-02-22T03:12:34.561Z,74.03
2019-02-22T03:15:00.777Z,70.10
2019-02-22T03:17:26.959Z,72.27
2019-02-22T03:19:53.442Z,77.80
2019-02-22T03:22:19.584Z,70.50
2019-02-22T03:24:45.743Z,69.80
2019-02-22T03:27:11.883Z,71.43
2019-02-22T03:29:38.055Z,78.67
2019-02-22T03:32:04.192Z,80.83
2019-02-22T03:34:30.621Z,73.20
2019-02-22T03:36:56.752Z,75.40
2019-02-22T03:39:22.924Z,75.87
2019-02-22T03:41:49.055Z,71.97
2019-02-22T03:44:15.239Z,76.43
2019-02-22T03:46:41.400Z,75.50
2019-02-22T03:49:07.553Z,72.97
2019-02-22T03:51:33.715Z,70.77
2019-02-22T03:54:00.150Z,75.83
2019-02-22T03:56:26.286Z,76.00
2019-02-22T03:58:52.790Z,78.83
2019-02-22T04:01:19.036Z,73.40
2019-02-22T04:03:45.178Z,76.47
2019-02-22T04:06:11.583Z,77.00
2019-02-22T04:08:37.742Z,81.37
2019-02-22T04:11:03.886Z,78.27
2019-02-22T04:13:30.027Z,74.33
2019-02-22T04:15:56.172Z,76.27
2019-02-22T04:18:22.322Z,69.23
2019-02-22T04:20:48.763Z,78.93
2019-02-22T04:23:14.908Z,73.87
2019-02-22T04:25:41.083Z,69.80
2019-02-22T04:28:07.282Z,70.30
2019-02-22T04:30:33.757Z,74.87
2019-02-22T04:32:59.912Z,65.50
2019-02-22T04:35:26.302Z,72.40
2019-02-22T04:37:52.479Z,67.80
2019-02-22T04:40:18.616Z,67.77
2019-02-22T04:42:44.814Z,65.60
2019-02-22T04:45:11.188Z,67.60
2019-02-22T04:47:37.347Z,67.00
2019-02-22T04:50:04.888Z,71.70
2019-02-22T04:52:31.048Z,70.23
2019-02-22T04:54:57.439Z,69.13
2019-02-22T04:57:23.684Z,67.97
2019-02-22T04:59:49.835Z,63.37
2019-02-22T05:02:16.242Z,62.33
2019-02-22T05:04:42.386Z,70.07
2019-02-22T05:07:08.526Z,69.50
2019-02-22T05:09:35.670Z,71.73
2019-02-22T05:12:10.858Z,65.07
2019-02-22T05:14:30.968Z,72.20
2019-02-22T05:16:57.117Z,70.33
2019-02-22T05:19:23.501Z,71.67
2019-02-22T05:21:49.635Z,71.40
2019-02-22T05:24:16.019Z,69.77
2019-02-22T05:26:42.175Z,70.70
2019-02-22T05:29:08.333Z,70.23
2019-02-22T05:31:34.461Z,68.90
2019-02-22T05:34:00.610Z,65.00
2019-02-22T05:36:26.753Z,65.73
2019-02-22T05:38:52.897Z,65.30
2019-02-22T05:41:19.031Z,63.93
2019-02-22T05:43:45.417Z,65.93
2019-02-22T05:46:11.562Z,61.20
2019-02-22T05:48:38.884Z,63.97
2019-02-22T05:51:05.155Z,67.90
2019-02-22T05:53:31.550Z,60.90
2019-02-22T05:55:57.697Z,67.50
2019-02-22T05:58:23.845Z,64.53
2019-02-22T06:00:49.980Z,65.50
2019-02-22T06:03:16.369Z,68.40
2019-02-22T06:05:42.763Z,66.87
2019-02-22T06:08:09.221Z,64.83
2019-02-22T06:10:35.737Z,67.20
2019-02-22T06:13:01.963Z,65.17
2019-02-22T06:15:28.103Z,59.87
2019-02-22T06:17:54.388Z,60.17
2019-02-22T06:20:20.918Z,60.80
2019-02-22T06:22:47.068Z,63.27
2019-02-22T06:25:13.212Z,60.03
2019-02-22T06:27:39.364Z,58.50
2019-02-22T06:30:08.118Z,59.53
2019-02-22T06:32:34.511Z,62.90
2019-02-22T06:35:00.659Z,61.87
2019-02-22T06:37:26.808Z,67.97
2019-02-22T06:39:52.963Z,61.60
2019-02-22T06:42:19.108Z,61.97
2019-02-22T06:44:45.271Z,65.57
2019-02-22T06:47:11.422Z,58.47
2019-02-22T06:49:37.583Z,58.73
2019-02-22T06:52:03.735Z,59.23
2019-02-22T06:54:32.075Z,59.27
2019-02-22T06:56:58.222Z,57.87
2019-02-22T06:59:24.383Z,58.53
2019-02-22T07:01:50.526Z,59.20
2019-02-22T07:04:17.012Z,57.87
2019-02-22T07:06:43.163Z,60.33
2019-02-22T07:09:09.311Z,57.67
2019-02-22T07:11:43.368Z,58.23
2019-02-22T07:14:09.522Z,58.23
2019-02-22T07:16:35.683Z,57.40
2019-02-22T07:19:01.840Z,61.73
2019-02-22T07:21:38.858Z,58.57
2019-02-22T07:23:56.288Z,53.83
2019-02-22T07:26:22.431Z,60.10
2019-02-22T07:28:48.597Z,58.33
2019-02-22T07:31:14.743Z,61.53
2019-02-22T07:33:40.894Z,60.50
2019-02-22T07:36:07.069Z,56.97
2019-02-22T07:38:33.211Z,56.73
2019-02-22T07:40:59.587Z,62.60
2019-02-22T07:43:25.730Z,57.97
2019-02-22T07:45:51.882Z,62.27
2019-02-22T07:48:18.031Z,56.03
2019-02-22T07:50:44.189Z,61.77
2019-02-22T07:53:10.326Z,54.17
2019-02-22T07:55:36.479Z,56.40
2019-02-22T07:58:02.628Z,52.10
2019-02-22T08:00:28.783Z,56.50
2019-02-22T08:02:54.927Z,53.53
2019-02-22T08:05:21.095Z,51.67
2019-02-22T08:07:47.243Z,50.37
2019-02-22T08:10:13.430Z,52.33
2019-02-22T08:12:39.583Z,49.27
2019-02-22T08:15:08.286Z,51.37
2019-02-22T08:17:34.770Z,49.17
2019-02-22T08:20:01.270Z,54.57
2019-02-22T08:22:27.619Z,57.43
2019-02-22T08:24:53.815Z,55.33
2019-02-22T08:27:19.947Z,54.43
2019-02-22T08:29:46.106Z,57.97
2019-02-22T08:32:12.566Z,56.30
2019-02-22T08:34:38.736Z,50.00
2019-02-22T08:37:05.000Z,52.87
2019-02-22T08:39:31.188Z,48.00
2019-02-22T08:41:57.636Z,47.40
2019-02-22T08:44:23.780Z,44.53
2019-02-22T08:46:50.187Z,47.00
2019-02-22T08:49:16.323Z,45.40
2019-02-22T08:51:42.476Z,46.47
2019-02-22T08:54:08.621Z,49.03
2019-02-22T08:56:34.800Z,52.93
2019-02-22T08:59:01.328Z,52.70
2019-02-22T09:01:27.494Z,50.77
2019-02-22T09:03:53.698Z,49.97
2019-02-22T09:06:19.868Z,53.97
2019-02-22T09:08:46.344Z,51.83
2019-02-22T09:11:12.773Z,52.33
2019-02-22T09:13:43.629Z,56.07
2019-02-22T09:16:07.280Z,59.47
2019-02-22T09:18:34.530Z,52.73
2019-02-22T09:21:00.739Z,54.90
2019-02-22T09:23:26.905Z,52.77
2019-02-22T09:25:53.158Z,51.93
2019-02-22T09:28:19.561Z,53.77
2019-02-22T09:30:45.815Z,53.80
2019-02-22T09:33:11.965Z,51.13
2019-02-22T09:35:38.477Z,51.43
2019-02-22T09:38:05.329Z,47.83
2019-02-22T09:40:31.477Z,48.43
2019-02-22T09:42:57.623Z,52.60
2019-02-22T09:45:24.590Z,55.17
2019-02-22T09:47:51.069Z,59.67
2019-02-22T09:50:17.244Z,58.50
2019-02-22T09:52:43.410Z,58.67
2019-02-22T09:55:11.264Z,70.67
2019-02-22T09:57:37.670Z,64.30
2019-02-22T10:00:10.491Z,60.70
2019-02-22T10:02:36.659Z,59.50
2019-02-22T10:05:05.022Z,65.20
2019-02-22T10:07:31.198Z,58.60
2019-02-22T10:09:58.347Z,57.77
2019-02-22T10:12:24.537Z,52.67
2019-02-22T10:14:50.690Z,53.50
2019-02-22T10:17:16.851Z,51.03
2019-02-22T10:19:43.023Z,54.47
2019-02-22T10:22:09.282Z,49.67
2019-02-22T10:24:35.431Z,49.33
2019-02-22T10:27:01.936Z,52.50
2019-02-22T10:29:29.281Z,47.70
2019-02-22T10:31:55.440Z,44.87
2019-02-22T10:34:21.577Z,52.27
2019-02-22T10:36:48.086Z,50.53
2019-02-22T10:39:14.296Z,48.37
2019-02-22T10:41:40.438Z,50.73
2019-02-22T10:44:17.072Z,49.17
2019-02-22T10:46:34.871Z,48.50
2019-02-22T10:49:01.018Z,49.97
2019-02-22T10:51:27.172Z,46.97
2019-02-22T10:53:53.623Z,50.37
2019-02-22T10:56:20.014Z,47.93
2019-02-22T10:58:46.147Z,50.93
2019-02-22T11:01:12.314Z,55.17
2019-02-22T11:03:38.467Z,53.27
2019-02-22T11:06:04.636Z,53.57
2019-02-22T11:08:30.801Z,52.93
2019-02-22T11:10:56.959Z,55.70
2019-02-22T11:13:23.112Z,55.60
2019-02-22T11:15:50.006Z,56.43
2019-02-22T11:18:16.140Z,54.03
2019-02-22T11:20:42.296Z,53.57
2019-02-22T11:23:08.778Z,54.83
2019-02-22T11:25:34.939Z,52.17
2019-02-22T11:28:02.088Z,51.00
2019-02-22T11:30:28.253Z,54.07
2019-02-22T11:32:54.412Z,51.40
2019-02-22T11:35:20.567Z,54.10
2019-02-22T11:37:47.698Z,44.83
2019-02-22T11:40:13.879Z,47.90
2019-02-22T11:42:40.357Z,46.93
2019-02-22T11:45:08.204Z,46.83
2019-02-22T11:47:34.347Z,45.23
2019-02-22T11:50:00.500Z,44.73
2019-02-22T11:52:26.647Z,42.13
2019-02-22T11:54:52.796Z,37.40
2019-02-22T11:57:20.264Z,40.90
2019-02-22T11:59:46.504Z,35.17
2019-02-22T12:02:12.671Z,33.70
2019-02-22T12:04:38.832Z,32.30
2019-02-22T12:07:05.019Z,32.20
2019-02-22T12:09:31.170Z,31.13
2019-02-22T12:11:57.339Z,29.93
2019-02-22T12:14:23.506Z,25.93
2019-02-22T12:16:49.675Z,26.40
2019-02-22T12:19:16.130Z,26.73
2019-02-22T12:21:42.311Z,24.50
2019-02-22T12:24:08.493Z,23.50
2019-02-22T12:26:34.639Z,22.87
2019-02-22T12:29:00.791Z,32.50
2019-02-22T12:31:27.022Z,18.67
2019-02-22T12:33:53.289Z,18.60
2019-02-22T12:36:19.838Z,19.83
2019-02-22T12:38:45.989Z,16.03
2019-02-22T12:41:12.139Z,16.83
2019-02-22T12:43:38.317Z,21.07
2019-02-22T12:46:04.477Z,41.53
2019-02-22T12:48:30.886Z,12.80
2019-02-22T12:50:57.071Z,12.57
2019-02-22T12:53:23.235Z,23.33
2019-02-22T12:55:49.388Z,36.47
2019-02-22T12:58:15.546Z,16.97
2019-02-22T13:00:41.700Z,21.47
2019-02-22T13:03:07.855Z,28.80
2019-02-22T13:05:34.002Z,33.47
2019-02-22T13:08:00.167Z,18.90
2019-02-22T13:10:26.324Z,16.27
2019-02-22T13:12:52.747Z,14.83
2019-02-22T13:15:18.913Z,15.40
2019-02-22T13:17:45.067Z,15.73
2019-02-22T13:20:11.233Z,22.90
2019-02-22T13:22:37.383Z,22.57
2019-02-22T13:25:07.178Z,19.47
2019-02-22T13:27:33.351Z,19.53
2019-02-22T13:29:59.538Z,19.30
2019-02-22T13:32:25.683Z,17.73
2019-02-22T13:34:51.915Z,18.90
2019-02-22T13:37:18.070Z,17.57
2019-02-22T13:39:44.247Z,15.90
2019-02-22T13:42:10.402Z,14.93
2019-02-22T13:44:36.570Z,17.73
2019-02-22T13:47:02.730Z,19.13
2019-02-22T13:49:28.877Z,17.23
2019-02-22T13:51:55.401Z,19.27
2019-02-22T13:54:21.597Z,17.50
2019-02-22T13:56:48.184Z,19.33
2019-02-22T13:59:14.403Z,16.63
2019-02-22T14:01:40.563Z,14.83
2019-02-22T14:04:06.739Z,14.77
2019-02-22T14:06:32.884Z,14.93
2019-02-22T14:08:59.048Z,15.40
2019-02-22T14:11:25.238Z,16.73
2019-02-22T14:13:51.394Z,16.63
2019-02-22T14:16:17.627Z,15.57
2019-02-22T14:18:43.787Z,14.17
2019-02-22T14:21:09.943Z,13.90
2019-02-22T14:23:36.093Z,13.20
2019-02-22T14:26:02.579Z,13.13
2019-02-22T14:28:28.723Z,13.23
2019-02-22T14:30:54.877Z,16.63
2019-02-22T14:33:21.025Z,11.27
2019-02-22T14:35:47.190Z,12.30
2019-02-22T14:38:13.632Z,12.30
2019-02-22T14:40:39.833Z,12.77
2019-02-22T14:43:16.198Z,13.07
2019-02-22T14:45:34.040Z,14.90
2019-02-22T14:48:00.223Z,15.50
2019-02-22T14:50:26.699Z,15.57
2019-02-22T14:52:52.859Z,16.07
2019-02-22T14:55:18.996Z,16.33
2019-02-22T14:57:45.493Z,16.43
2019-02-22T15:00:14.899Z,16.00
2019-02-22T15:02:41.288Z,15.90
2019-02-22T15:05:09.229Z,17.50
2019-02-22T15:07:35.506Z,18.87
2019-02-22T15:10:02.151Z,16.10
2019-02-22T15:12:28.290Z,16.67
2019-02-22T15:14:54.707Z,16.93
2019-02-22T15:17:23.004Z,22.97
2019-02-22T15:19:49.151Z,25.93
2019-02-22T15:22:15.292Z,22.57
2019-02-22T15:24:41.437Z,24.17
2019-02-22T15:27:07.585Z,24.03
2019-02-22T15:29:33.726Z,24.77
2019-02-22T15:32:00.887Z,26.33
2019-02-22T15:34:27.045Z,26.03
2019-02-22T15:36:54.220Z,25.47
2019-02-22T15:39:20.452Z,26.40
2019-02-22T15:41:47.096Z,24.43
2019-02-22T15:44:13.286Z,24.60
2019-02-22T15:46:39.448Z,25.50
2019-02-22T15:49:05.945Z,24.17
2019-02-22T15:51:32.160Z,21.03
2019-02-22T15:53:58.639Z,21.47
2019-02-22T15:56:26.050Z,21.57
2019-02-22T15:58:52.211Z,21.13
2019-02-22T16:01:18.356Z,20.13
2019-02-22T16:04:01.383Z,21.03
2019-02-22T16:06:27.528Z,21.10
2019-02-22T16:08:53.670Z,18.80
2019-02-22T16:11:19.916Z,23.87
2019-02-22T16:13:46.065Z,22.27
2019-02-22T16:16:22.727Z,18.87
2019-02-22T16:18:40.597Z,17.10
2019-02-22T16:21:06.755Z,17.13
2019-02-22T16:23:33.144Z,17.10
2019-02-22T16:25:59.294Z,20.67
2019-02-22T16:28:25.479Z,18.07
2019-02-22T16:30:51.638Z,17.37
2019-02-22T16:33:18.886Z,19.10
2019-02-22T16:35:45.344Z,16.10
2019-02-22T16:38:11.500Z,17.63
2019-02-22T16:40:37.639Z,20.20
2019-02-22T16:43:04.164Z,19.77
2019-02-22T16:45:30.305Z,17.93
2019-02-22T16:47:56.456Z,20.40
2019-02-22T16:50:22.613Z,17.90
2019-02-22T16:52:48.773Z,17.10
2019-02-22T16:55:15.491Z,17.70
2019-02-22T16:57:41.643Z,19.33
2019-02-22T17:00:10.247Z,18.07
2019-02-22T17:02:36.790Z,20.03
2019-02-22T17:05:05.063Z,18.83
2019-02-22T17:07:31.618Z,19.50
2019-02-22T17:09:57.797Z,18.10
2019-02-22T17:12:23.951Z,23.07
2019-02-22T17:14:50.118Z,21.13
2019-02-22T17:17:16.486Z,19.70
2019-02-22T17:19:42.656Z,21.63
2019-02-22T17:22:09.730Z,25.03
2019-02-22T17:24:36.377Z,21.55
2019-02-22T17:27:02.527Z,19.67
2019-02-22T17:29:28.687Z,23.00
2019-02-22T17:31:54.830Z,22.83
2019-02-22T17:34:20.987Z,21.20
2019-02-22T17:36:47.435Z,23.00
2019-02-22T17:39:13.844Z,20.70
2019-02-22T17:41:42.668Z,21.90
2019-02-22T17:44:08.354Z,21.93
2019-02-22T17:46:35.909Z,23.07
2019-02-22T17:49:02.065Z,22.53
2019-02-22T17:51:28.213Z,24.03
2019-02-22T17:53:54.478Z,21.23
2019-02-22T17:56:20.927Z,23.60
2019-02-22T17:58:47.312Z,24.30
2019-02-22T18:01:13.469Z,22.70
2019-02-22T18:03:39.615Z,22.83
2019-02-22T18:06:06.055Z,22.57
2019-02-22T18:08:32.197Z,23.43
2019-02-22T18:10:58.352Z,21.70
2019-02-22T18:13:24.832Z,24.97
2019-02-22T18:15:50.987Z,23.53
2019-02-22T18:18:17.130Z,25.07
2019-02-22T18:20:43.293Z,22.33
2019-02-22T18:23:09.439Z,23.03
2019-02-22T18:25:35.600Z,20.97
2019-02-22T18:28:01.856Z,22.67
2019-02-22T18:30:28.115Z,24.53
2019-02-22T18:32:54.575Z,24.93
2019-02-22T18:35:20.868Z,26.40
2019-02-22T18:37:47.335Z,23.80
2019-02-22T18:40:17.309Z,24.43
2019-02-22T18:42:43.467Z,25.37
2019-02-22T18:45:09.829Z,23.53
2019-02-22T18:47:35.990Z,25.87
2019-02-22T18:50:06.060Z,23.23
2019-02-22T18:52:32.458Z,23.30
2019-02-22T18:54:58.599Z,26.97
2019-02-22T18:57:24.758Z,22.00
2019-02-22T18:59:50.900Z,23.83
2019-02-22T19:02:17.064Z,21.60
2019-02-22T19:04:43.234Z,21.97
2019-02-22T19:07:09.391Z,20.87
2019-02-22T19:09:35.531Z,21.07
2019-02-22T19:12:01.686Z,22.90
2019-02-22T19:14:28.123Z,19.90
2019-02-22T19:16:55.382Z,23.43
2019-02-22T19:19:21.521Z,23.80
2019-02-22T19:21:48.101Z,19.47
2019-02-22T19:24:14.366Z,23.67
2019-02-22T19:26:40.533Z,24.10
2019-02-22T19:29:06.676Z,21.30
2019-02-22T19:31:32.834Z,21.77
2019-02-22T19:33:59.087Z,20.50
2019-02-22T19:36:25.232Z,20.17
2019-02-22T19:38:51.393Z,22.53
2019-02-22T19:41:17.544Z,19.93
2019-02-22T19:43:43.992Z,20.10
2019-02-22T19:46:10.134Z,22.87
2019-02-22T19:48:36.292Z,21.47
2019-02-22T19:51:33.649Z,23.33
2019-02-22T19:53:59.802Z,27.83
2019-02-22T19:56:25.981Z,25.10
2019-02-22T19:58:52.183Z,29.87
2019-02-22T20:01:18.339Z,29.73
2019-02-22T20:03:44.488Z,31.50
2019-02-22T20:06:10.972Z,35.70
2019-02-22T20:08:37.155Z,36.93
2019-02-22T20:11:04.401Z,37.60
2019-02-22T20:13:30.652Z,32.33
2019-02-22T20:15:56.823Z,35.00
2019-02-22T20:18:22.986Z,39.93
2019-02-22T20:20:49.183Z,37.63
2019-02-22T20:23:15.522Z,38.47
2019-02-22T20:25:41.675Z,41.67
2019-02-22T20:28:08.127Z,37.90
2019-02-22T20:30:35.416Z,38.20
2019-02-22T20:33:01.582Z,36.23
2019-02-22T20:35:28.450Z,41.07
2019-02-22T20:37:54.801Z,40.00
2019-02-22T20:40:21.210Z,40.60
2019-02-22T20:42:47.756Z,36.63
2019-02-22T20:45:14.036Z,37.97
2019-02-22T20:47:40.412Z,39.50
2019-02-22T20:50:10.673Z,40.70
2019-02-22T20:52:36.927Z,42.90
2019-02-22T20:55:05.002Z,43.80
2019-02-22T20:57:31.406Z,43.20
2019-02-22T20:59:57.571Z,41.23
2019-02-22T21:02:23.743Z,46.10
2019-02-22T21:04:50.219Z,42.30
2019-02-22T21:07:16.631Z,40.53
2019-02-22T21:09:42.837Z,44.20
2019-02-22T21:12:09.087Z,47.17
2019-02-22T21:14:35.239Z,43.43
2019-02-22T21:17:01.427Z,40.87
2019-02-22T21:19:27.580Z,41.90
2019-02-22T21:21:53.728Z,41.87
2019-02-22T21:24:19.877Z,38.87
2019-02-22T21:26:46.034Z,44.07
2019-02-22T21:29:12.293Z,39.63
2019-02-22T21:31:38.704Z,37.93
2019-02-22T21:34:05.138Z,39.60
2019-02-22T21:36:31.290Z,37.73
2019-02-22T21:38:57.442Z,41.43
2019-02-22T21:41:23.667Z,37.63
2019-02-22T21:43:50.168Z,44.33
2019-02-22T21:46:16.548Z,44.40
2019-02-22T21:48:43.120Z,40.27
2019-02-22T21:51:09.315Z,38.27
2019-02-22T21:53:35.465Z,37.73
2019-02-22T21:56:01.618Z,34.70
2019-02-22T21:58:27.864Z,38.10
2019-02-22T22:00:54.016Z,39.40
2019-02-22T22:03:20.164Z,39.47
2019-02-22T22:05:46.334Z,35.50
2019-02-22T22:08:13.479Z,36.73
2019-02-22T22:10:39.891Z,34.07
2019-02-22T22:13:06.050Z,35.80
2019-02-22T22:15:32.206Z,37.43
2019-02-22T22:17:58.365Z,36.30
2019-02-22T22:20:24.523Z,37.10
2019-02-22T22:22:50.755Z,35.67
2019-02-22T22:25:16.949Z,36.13
2019-02-22T22:27:43.191Z,31.27
2019-02-22T22:30:13.613Z,34.57
2019-02-22T22:32:39.815Z,35.97
2019-02-22T22:35:08.616Z,37.90
2019-02-22T22:37:35.771Z,34.97
2019-02-22T22:40:02.332Z,36.80
2019-02-22T22:42:28.611Z,33.57
2019-02-22T22:44:54.749Z,36.07
2019-02-22T22:47:20.892Z,34.20
2019-02-22T22:49:47.034Z,36.10
2019-02-22T22:52:13.199Z,32.30
2019-02-22T22:54:39.366Z,27.43
2019-02-22T22:57:05.511Z,34.00
2019-02-22T22:59:31.695Z,32.50
2019-02-22T23:01:58.137Z,35.93
2019-02-22T23:04:24.488Z,32.40
2019-02-22T23:06:50.652Z,36.37
2019-02-22T23:09:18.404Z,32.17
2019-02-22T23:11:44.791Z,32.57
2019-02-22T23:14:10.948Z,31.10
2019-02-22T23:16:37.099Z,30.23
2019-02-22T23:19:04.250Z,30.73
2019-02-22T23:21:30.394Z,33.67
2019-02-22T23:23:56.794Z,27.40
2019-02-22T23:26:22.930Z,30.63
2019-02-22T23:28:49.070Z,33.60
2019-02-22T23:31:15.227Z,27.83
2019-02-22T23:33:42.709Z,33.60
2019-02-22T23:36:08.974Z,37.47
2019-02-22T23:38:35.131Z,32.10
2019-02-22T23:41:01.273Z,37.17
2019-02-22T23:43:27.411Z,36.37
2019-02-22T23:45:53.579Z,34.77
2019-02-22T23:48:19.729Z,32.27
2019-02-22T23:50:45.995Z,32.60
2019-02-22T23:53:12.133Z,33.73
2019-02-22T23:55:38.282Z,29.67
2019-02-22T23:58:04.419Z,33.33
